Time;durP1;ratioP1;P1;durP2;ratioP2;P2;SDS_P1;SDS_P2;PMS_P1;PMS_P2;Temp;Humidity;BMP_temperature;BMP_pressure;BME280_temperature;BME280_humidity;BME280_pressure;Samples;Min_cycle;Max_cycle;Signal;HPM_P1;HPM_P2
2022/11/30 00:01:10;;;;;;;33.67;16.73;;;-0.70;99.90;;;;;;5032267;28;20050;-73
2022/11/30 00:03:37;;;;;;;33.72;16.83;;;-0.70;99.90;;;;;;5032482;28;20413;-73
2022/11/30 00:06:06;;;;;;;38.08;17.08;;;-0.70;99.90;;;;;;5032274;28;20733;-74
2022/11/30 00:08:35;;;;;;;31.63;15.07;;;-0.80;99.90;;;;;;5031865;28;20343;-73
2022/11/30 00:11:09;;;;;;;33.13;16.52;;;-0.70;99.90;;;;;;5032412;28;20140;-73
2022/11/30 00:13:36;;;;;;;30.60;14.68;;;-0.70;99.90;;;;;;5032044;28;20055;-73
2022/11/30 00:16:04;;;;;;;33.67;15.95;;;-0.80;99.90;;;;;;5031431;28;20061;-74
2022/11/30 00:18:32;;;;;;;36.63;17.15;;;-0.80;99.90;;;;;;5032120;28;20052;-74
2022/11/30 00:21:01;;;;;;;34.90;17.63;;;-0.90;99.90;;;;;;5032401;28;20042;-73
2022/11/30 00:23:34;;;;;;;32.40;16.92;;;-0.90;99.90;;;;;;5030537;28;20152;-73
2022/11/30 00:26:03;;;;;;;35.85;17.63;;;-0.90;99.90;;;;;;5046201;28;20131;-73
2022/11/30 00:28:32;;;;;;;33.80;15.20;;;-0.80;99.90;;;;;;5032011;28;20049;-73
2022/11/30 00:31:00;;;;;;;36.60;17.38;;;-0.80;99.90;;;;;;5047393;28;20050;-73
2022/11/30 00:33:28;;;;;;;32.22;17.08;;;-0.90;99.90;;;;;;5029259;28;20049;-73
2022/11/30 00:35:57;;;;;;;28.52;14.90;;;-0.90;99.90;;;;;;5031564;28;20049;-73
2022/11/30 00:38:25;;;;;;;35.92;16.70;;;-0.80;99.90;;;;;;5031591;28;20590;-73
2022/11/30 00:40:55;;;;;;;34.20;16.45;;;-0.90;99.90;;;;;;5030514;28;20454;-74
2022/11/30 00:43:22;;;;;;;29.13;15.02;;;-0.90;99.90;;;;;;5045824;28;20065;-74
2022/11/30 00:45:50;;;;;;;29.80;16.55;;;-0.90;99.90;;;;;;5031575;28;20049;-73
2022/11/30 00:48:17;;;;;;;32.33;15.40;;;-0.80;99.90;;;;;;5021516;28;20092;-73
2022/11/30 00:50:45;;;;;;;35.38;17.35;;;-0.80;99.90;;;;;;5026936;28;20049;-73
2022/11/30 00:53:12;;;;;;;30.95;16.50;;;-0.80;99.90;;;;;;5028997;28;20060;-73
2022/11/30 00:55:39;;;;;;;31.13;15.07;;;-0.80;99.90;;;;;;5031367;28;20053;-74
2022/11/30 00:58:08;;;;;;;32.78;15.98;;;-0.80;99.90;;;;;;5031539;28;20136;-73
2022/11/30 01:00:36;;;;;;;34.42;16.70;;;-0.80;99.90;;;;;;5030712;28;20041;-73
2022/11/30 01:03:04;;;;;;;38.40;18.75;;;-0.80;99.90;;;;;;5031379;28;20132;-74
2022/11/30 01:05:34;;;;;;;30.55;15.88;;;-0.80;99.90;;;;;;5031648;28;20151;-74
2022/11/30 01:08:02;;;;;;;31.45;16.35;;;-0.80;99.90;;;;;;5031291;28;20099;-74
2022/11/30 01:10:29;;;;;;;32.85;16.80;;;-0.80;99.90;;;;;;5029121;28;20052;-74
2022/11/30 01:12:57;;;;;;;36.72;16.40;;;-0.80;99.90;;;;;;5031267;28;20061;-74
2022/11/30 01:15:26;;;;;;;34.67;15.88;;;-0.80;99.90;;;;;;5030117;28;20560;-74
2022/11/30 01:17:53;;;;;;;37.58;16.95;;;-0.80;99.90;;;;;;5030895;28;20080;-74
2022/11/30 01:20:21;;;;;;;30.25;15.18;;;-0.80;99.90;;;;;;5024879;28;20052;-73
2022/11/30 01:22:48;;;;;;;34.30;17.10;;;-0.80;99.90;;;;;;5026527;28;20053;-74
2022/11/30 01:25:16;;;;;;;34.60;17.42;;;-0.80;99.90;;;;;;5011637;28;20144;-74
2022/11/30 01:27:43;;;;;;;36.53;15.80;;;-0.80;99.90;;;;;;5010511;28;20080;-74
2022/11/30 01:30:12;;;;;;;32.90;16.52;;;-0.80;99.90;;;;;;5031321;28;20053;-74
2022/11/30 01:32:41;;;;;;;32.05;16.75;;;-0.80;99.90;;;;;;5031324;28;20037;-73
2022/11/30 01:35:08;;;;;;;34.45;16.77;;;-0.80;99.90;;;;;;5031177;28;20486;-73
2022/11/30 01:37:36;;;;;;;33.92;16.45;;;-0.90;99.90;;;;;;5028667;28;20060;-74
2022/11/30 01:40:04;;;;;;;35.15;17.80;;;-0.90;99.90;;;;;;5029818;28;20049;-74
2022/11/30 01:42:32;;;;;;;32.72;17.27;;;-0.80;99.90;;;;;;5030999;28;20052;-74
2022/11/30 01:45:01;;;;;;;32.85;16.55;;;-0.80;99.90;;;;;;5029498;28;20041;-74
2022/11/30 01:47:35;;;;;;;34.20;17.65;;;-0.80;99.90;;;;;;5029987;28;20057;-72
2022/11/30 01:50:09;;;;;;;30.75;15.95;;;-0.80;99.90;;;;;;5030798;28;20140;-73
2022/11/30 01:52:40;;;;;;;35.78;18.08;;;-0.80;99.90;;;;;;5030765;28;20145;-73
2022/11/30 01:55:17;;;;;;;39.60;17.88;;;-0.80;99.90;;;;;;5029298;28;20115;-74
2022/11/30 01:57:49;;;;;;;37.08;18.13;;;-0.80;99.90;;;;;;5030536;28;20138;-73
2022/11/30 02:00:18;;;;;;;34.30;17.67;;;-0.80;99.90;;;;;;5062711;28;20054;-73
2022/11/30 02:02:56;;;;;;;33.05;16.13;;;-0.80;99.90;;;;;;5030783;28;20080;-72
2022/11/30 02:05:26;;;;;;;37.25;16.40;;;-0.70;99.90;;;;;;5029368;28;20417;-72
2022/11/30 02:07:54;;;;;;;32.33;16.40;;;-0.70;99.90;;;;;;5029147;28;20540;-73
2022/11/30 02:10:29;;;;;;;31.05;16.45;;;-0.70;99.90;;;;;;5031115;28;20140;-73
2022/11/30 02:13:32;;;;;;;35.30;17.05;;;-0.80;99.90;;;;;;5029939;28;20099;-73
2022/11/30 02:16:20;;;;;;;27.48;14.57;;;-0.80;99.90;;;;;;5043867;28;20061;-72
2022/11/30 02:19:02;;;;;;;32.92;16.48;;;-0.80;99.90;;;;;;5022810;28;20057;-72
2022/11/30 02:21:40;;;;;;;31.42;16.60;;;-0.90;99.90;;;;;;5009554;28;20050;-73
2022/11/30 02:24:39;;;;;;;33.83;17.10;;;-0.90;99.90;;;;;;5028046;28;20072;-72
2022/11/30 02:27:28;;;;;;;31.27;16.67;;;-0.90;99.90;;;;;;5030636;28;20073;-72
2022/11/30 02:30:05;;;;;;;29.42;15.38;;;-0.80;99.90;;;;;;5045730;28;20054;-73
2022/11/30 02:32:39;;;;;;;29.23;15.30;;;-0.80;99.90;;;;;;5029068;28;20140;-73
2022/11/30 02:35:09;;;;;;;32.00;16.70;;;-0.80;99.90;;;;;;5028927;28;20409;-73
2022/11/30 02:37:38;;;;;;;31.60;15.38;;;-0.80;99.90;;;;;;5030157;28;20568;-74
2022/11/30 02:40:10;;;;;;;32.08;16.50;;;-0.80;99.90;;;;;;5029566;28;20481;-74
2022/11/30 02:42:38;;;;;;;26.65;14.65;;;-0.80;99.90;;;;;;5030535;28;20063;-73
2022/11/30 02:45:09;;;;;;;31.25;15.95;;;-0.80;99.90;;;;;;5030565;28;20037;-74
2022/11/30 02:47:44;;;;;;;28.02;15.35;;;-0.80;99.90;;;;;;5029167;28;20148;-74
2022/11/30 02:50:17;;;;;;;32.75;16.08;;;-0.70;99.90;;;;;;5027719;28;20126;-74
2022/11/30 02:52:45;;;;;;;28.70;15.10;;;-0.80;99.90;;;;;;5030003;28;20052;-72
2022/11/30 02:55:17;;;;;;;33.42;15.95;;;-0.80;99.90;;;;;;5029726;28;20049;-72
2022/11/30 02:57:45;;;;;;;35.00;17.07;;;-0.90;99.90;;;;;;5028604;28;20045;-73
2022/11/30 03:00:16;;;;;;;31.55;16.95;;;-0.90;99.90;;;;;;5028889;28;20050;-73
2022/11/30 03:02:43;;;;;;;27.83;15.05;;;-0.90;99.90;;;;;;5028797;28;20525;-73
2022/11/30 03:05:11;;;;;;;32.25;15.30;;;-1.00;99.90;;;;;;5028564;28;20084;-73
2022/11/30 03:07:39;;;;;;;32.03;15.48;;;-1.00;99.90;;;;;;5029920;28;20049;-73
2022/11/30 03:10:08;;;;;;;29.65;13.70;;;-1.00;99.90;;;;;;5026450;28;20141;-73
2022/11/30 03:12:35;;;;;;;31.23;14.93;;;-1.00;99.90;;;;;;5022458;28;20153;-73
2022/11/30 03:15:03;;;;;;;29.48;15.63;;;-1.00;99.90;;;;;;5012456;28;20508;-73
2022/11/30 03:17:32;;;;;;;34.78;16.50;;;-0.90;99.90;;;;;;5023496;28;20068;-73
2022/11/30 03:19:59;;;;;;;33.97;15.27;;;-1.00;99.90;;;;;;5026637;28;20080;-73
2022/11/30 03:22:27;;;;;;;26.75;14.93;;;-1.00;99.90;;;;;;5014309;28;20053;-73
2022/11/30 03:24:54;;;;;;;33.08;16.73;;;-1.00;99.90;;;;;;5028749;28;20084;-73
2022/11/30 03:27:21;;;;;;;28.75;13.90;;;-1.00;99.90;;;;;;5029574;28;20060;-73
2022/11/30 03:29:49;;;;;;;31.77;16.02;;;-1.00;99.90;;;;;;5031525;28;20141;-73
2022/11/30 03:32:16;;;;;;;28.90;14.50;;;-1.00;99.90;;;;;;5033027;28;20051;-73
2022/11/30 03:34:45;;;;;;;29.92;13.75;;;-1.00;99.90;;;;;;5047379;28;20136;-73
2022/11/30 03:37:12;;;;;;;28.33;14.65;;;-1.00;99.90;;;;;;5032920;28;20198;-73
2022/11/30 03:39:40;;;;;;;30.95;14.95;;;-1.10;99.90;;;;;;5047980;28;20407;-72
2022/11/30 03:42:08;;;;;;;29.90;14.40;;;-1.10;99.90;;;;;;5065191;28;20068;-72
2022/11/30 03:44:38;;;;;;;30.60;14.90;;;-1.10;99.90;;;;;;5030422;28;20402;-73
2022/11/30 03:47:06;;;;;;;28.05;14.02;;;-1.10;99.90;;;;;;5032601;28;20077;-73
2022/11/30 03:49:33;;;;;;;28.23;14.70;;;-1.10;99.90;;;;;;5033261;28;20056;-72
2022/11/30 03:52:03;;;;;;;27.83;14.95;;;-1.20;99.90;;;;;;5031889;28;20084;-72
2022/11/30 03:54:30;;;;;;;31.85;15.30;;;-1.10;99.90;;;;;;5018272;28;20107;-72
2022/11/30 03:56:57;;;;;;;30.15;16.00;;;-1.10;99.90;;;;;;5011560;28;20060;-75
2022/11/30 03:59:25;;;;;;;29.80;15.48;;;-1.10;99.90;;;;;;5012947;28;20054;-72
2022/11/30 04:01:52;;;;;;;30.58;14.93;;;-1.00;99.90;;;;;;5014810;28;20049;-72
2022/11/30 04:04:19;;;;;;;30.15;15.18;;;-1.00;99.90;;;;;;5032299;28;20560;-73
2022/11/30 04:06:47;;;;;;;25.75;13.85;;;-1.00;99.90;;;;;;5014771;28;20054;-71
2022/11/30 04:09:15;;;;;;;28.70;14.48;;;-1.00;99.90;;;;;;5030992;28;20590;-71
2022/11/30 04:11:43;;;;;;;24.25;13.52;;;-0.90;99.90;;;;;;5031119;28;20072;-72
2022/11/30 04:14:10;;;;;;;31.08;14.70;;;-0.90;99.90;;;;;;5030969;28;20050;-72
2022/11/30 04:16:37;;;;;;;25.42;13.77;;;-0.90;99.90;;;;;;5022638;28;20422;-75
2022/11/30 04:19:07;;;;;;;29.98;14.77;;;-1.00;99.90;;;;;;5018036;28;20054;-72
2022/11/30 04:21:35;;;;;;;25.67;14.30;;;-1.10;99.90;;;;;;5020411;28;20054;-76
2022/11/30 04:24:02;;;;;;;27.00;13.55;;;-1.20;99.90;;;;;;5029702;28;20132;-73
2022/11/30 04:26:31;;;;;;;32.30;16.35;;;-1.20;99.90;;;;;;5025182;28;20050;-71
2022/11/30 04:28:59;;;;;;;26.65;13.00;;;-1.20;99.90;;;;;;5016740;28;20041;-74
2022/11/30 04:31:26;;;;;;;33.28;14.80;;;-1.10;99.90;;;;;;5023224;28;20468;-71
2022/11/30 04:33:54;;;;;;;28.45;13.95;;;-1.10;99.90;;;;;;5032673;28;20168;-71
2022/11/30 04:36:22;;;;;;;32.70;15.02;;;-1.10;99.90;;;;;;5030714;28;20053;-74
2022/11/30 04:38:52;;;;;;;28.60;14.73;;;-1.00;99.90;;;;;;5031610;28;20079;-74
2022/11/30 04:41:19;;;;;;;27.48;13.95;;;-1.00;99.90;;;;;;5024157;28;20103;-73
2022/11/30 04:43:49;;;;;;;26.90;13.75;;;-1.00;99.90;;;;;;5019967;28;20449;-72
2022/11/30 04:46:16;;;;;;;29.13;14.27;;;-1.00;99.90;;;;;;5025335;28;20399;-73
2022/11/30 04:48:44;;;;;;;30.98;15.30;;;-0.90;99.90;;;;;;5028955;28;20084;-73
2022/11/30 04:51:11;;;;;;;31.75;14.88;;;-1.00;99.90;;;;;;5029006;28;20457;-73
2022/11/30 04:53:41;;;;;;;26.13;13.85;;;-1.00;99.90;;;;;;5029224;28;20053;-74
2022/11/30 04:56:11;;;;;;;26.67;14.73;;;-1.00;99.90;;;;;;5024349;28;20057;-70
2022/11/30 04:58:39;;;;;;;30.75;14.68;;;-1.00;99.90;;;;;;5019928;28;20132;-71
2022/11/30 05:01:08;;;;;;;26.98;14.30;;;-1.00;99.90;;;;;;5016009;28;20103;-71
2022/11/30 05:03:36;;;;;;;27.88;14.32;;;-0.90;99.90;;;;;;5030104;28;20050;-71
2022/11/30 05:06:04;;;;;;;28.45;14.40;;;-1.00;99.90;;;;;;5027615;28;20076;-71
2022/11/30 05:08:32;;;;;;;28.05;14.18;;;-1.10;99.90;;;;;;5041116;28;20107;-70
2022/11/30 05:10:59;;;;;;;26.80;14.85;;;-1.20;99.90;;;;;;5015602;28;20049;-70
2022/11/30 05:13:27;;;;;;;29.15;14.27;;;-1.30;99.90;;;;;;5029194;28;20567;-72
2022/11/30 05:15:54;;;;;;;24.95;13.40;;;-1.30;99.90;;;;;;5027679;28;20045;-71
2022/11/30 05:18:23;;;;;;;27.83;13.60;;;-1.30;99.90;;;;;;5027570;28;20049;-70
2022/11/30 05:20:52;;;;;;;24.35;13.75;;;-1.30;99.90;;;;;;5027797;28;20399;-70
2022/11/30 05:23:21;;;;;;;26.85;14.40;;;-1.30;99.90;;;;;;5016772;28;20086;-71
2022/11/30 05:25:48;;;;;;;31.92;14.45;;;-1.20;99.90;;;;;;5027858;28;20056;-71
2022/11/30 05:28:16;;;;;;;24.65;14.07;;;-1.30;99.90;;;;;;5027411;28;20044;-71
2022/11/30 05:30:44;;;;;;;30.20;13.73;;;-1.30;99.90;;;;;;5011846;28;20597;-73
2022/11/30 05:33:12;;;;;;;27.95;13.98;;;-1.30;99.90;;;;;;5028420;28;20148;-71
2022/11/30 05:35:41;;;;;;;25.77;14.07;;;-1.30;99.90;;;;;;5029401;28;20052;-71
2022/11/30 05:38:09;;;;;;;27.23;13.73;;;-1.30;99.90;;;;;;5031051;28;20137;-70
2022/11/30 05:40:37;;;;;;;24.90;13.45;;;-1.30;99.90;;;;;;5028767;28;20072;-72
2022/11/30 05:43:05;;;;;;;27.15;13.65;;;-1.40;99.90;;;;;;5010017;28;20081;-70
2022/11/30 05:45:32;;;;;;;22.98;11.82;;;-1.40;99.90;;;;;;5027315;28;20053;-71
2022/11/30 05:48:00;;;;;;;25.95;13.23;;;-1.40;99.90;;;;;;5029299;28;20072;-71
2022/11/30 05:50:27;;;;;;;24.92;13.65;;;-1.40;99.90;;;;;;5028900;28;20054;-72
2022/11/30 05:52:57;;;;;;;24.02;12.93;;;-1.40;99.90;;;;;;5029260;28;20076;-71
2022/11/30 05:55:24;;;;;;;26.52;14.63;;;-1.40;99.90;;;;;;5029768;28;20061;-74
2022/11/30 05:57:52;;;;;;;25.80;12.88;;;-1.40;99.90;;;;;;5026638;28;20049;-74
2022/11/30 06:00:21;;;;;;;22.92;11.38;;;-1.40;99.90;;;;;;5029553;28;20053;-73
2022/11/30 06:02:49;;;;;;;25.77;13.35;;;-1.40;99.90;;;;;;5030507;28;20053;-75
2022/11/30 06:05:17;;;;;;;27.30;13.38;;;-1.50;99.90;;;;;;5028175;28;20054;-74
2022/11/30 06:07:44;;;;;;;25.60;13.80;;;-1.50;99.90;;;;;;5030297;28;20073;-74
2022/11/30 06:10:13;;;;;;;28.15;14.48;;;-1.50;99.90;;;;;;5028081;28;20053;-74
2022/11/30 06:12:41;;;;;;;24.23;13.20;;;-1.40;99.90;;;;;;5025578;28;20065;-73
2022/11/30 06:15:09;;;;;;;26.05;12.52;;;-1.30;99.90;;;;;;5028376;28;20050;-74
2022/11/30 06:17:38;;;;;;;25.98;13.98;;;-1.30;99.90;;;;;;5026551;28;20111;-76
2022/11/30 06:20:08;;;;;;;29.73;14.20;;;-1.30;99.90;;;;;;5058533;28;20497;-73
2022/11/30 06:22:35;;;;;;;27.23;14.65;;;-1.30;99.90;;;;;;5026954;28;20077;-74
2022/11/30 06:25:03;;;;;;;25.42;12.73;;;-1.40;99.90;;;;;;5027228;28;20048;-74
2022/11/30 06:27:32;;;;;;;26.23;14.45;;;-1.50;99.90;;;;;;5026583;28;20490;-74
2022/11/30 06:30:00;;;;;;;27.33;14.55;;;-1.50;99.90;;;;;;5026788;28;20077;-74
2022/11/30 06:32:27;;;;;;;24.50;13.77;;;-1.50;99.90;;;;;;5026365;28;20099;-73
2022/11/30 06:34:55;;;;;;;28.85;15.23;;;-1.50;99.90;;;;;;5027041;28;20108;-73
2022/11/30 06:37:22;;;;;;;26.77;14.55;;;-1.50;99.90;;;;;;5028160;28;20041;-74
2022/11/30 06:39:50;;;;;;;24.55;13.80;;;-1.50;99.90;;;;;;5027879;28;20458;-75
2022/11/30 06:42:18;;;;;;;24.92;14.40;;;-1.50;99.90;;;;;;5031191;28;20033;-76
2022/11/30 06:44:47;;;;;;;28.13;14.70;;;-1.40;99.90;;;;;;5032556;28;20050;-76
2022/11/30 06:47:15;;;;;;;26.27;14.10;;;-1.40;99.90;;;;;;5030022;28;20053;-75
2022/11/30 06:49:43;;;;;;;29.90;15.40;;;-1.40;99.90;;;;;;5029731;28;20052;-76
2022/11/30 06:52:10;;;;;;;28.48;16.13;;;-1.40;99.90;;;;;;5015456;28;20120;-76
2022/11/30 06:54:38;;;;;;;30.38;13.60;;;-1.50;99.90;;;;;;5029773;28;20057;-75
2022/11/30 06:57:05;;;;;;;23.40;14.40;;;-1.50;99.90;;;;;;5045610;28;20416;-75
2022/11/30 06:59:32;;;;;;;27.95;15.45;;;-1.40;99.90;;;;;;5032784;28;20149;-76
2022/11/30 07:02:01;;;;;;;26.13;13.82;;;-1.40;99.90;;;;;;5031236;28;20045;-75
2022/11/30 07:04:28;;;;;;;23.67;12.98;;;-1.40;99.90;;;;;;5031429;28;20500;-75
2022/11/30 07:06:57;;;;;;;23.75;14.20;;;-1.30;99.90;;;;;;5032834;28;20045;-74
2022/11/30 07:09:25;;;;;;;25.48;13.77;;;-1.40;99.90;;;;;;5031049;28;20099;-76
2022/11/30 07:11:53;;;;;;;21.92;12.38;;;-1.30;99.90;;;;;;5030674;28;20421;-76
2022/11/30 07:14:20;;;;;;;23.67;12.60;;;-1.30;99.90;;;;;;5032323;28;20136;-75
2022/11/30 07:16:48;;;;;;;20.20;11.77;;;-1.30;99.90;;;;;;5030874;28;20057;-75
2022/11/30 07:19:16;;;;;;;24.77;12.93;;;-1.30;99.90;;;;;;5031052;28;20147;-75
2022/11/30 07:21:44;;;;;;;21.55;11.75;;;-1.20;99.90;;;;;;5014352;28;20073;-76
2022/11/30 07:26:59;;;;;;;19.55;11.18;;;-1.20;99.90;;;;;;5032318;28;20453;-76
2022/11/30 07:29:27;;;;;;;24.48;12.10;;;-1.30;99.90;;;;;;5031021;28;20409;-75
2022/11/30 07:31:57;;;;;;;21.60;12.07;;;-1.30;99.90;;;;;;5032466;28;20034;-73
2022/11/30 07:34:26;;;;;;;20.60;11.73;;;-1.30;99.90;;;;;;5010985;28;20062;-73
2022/11/30 07:36:53;;;;;;;20.17;11.30;;;-1.40;99.90;;;;;;5047056;28;20073;-73
2022/11/30 07:39:21;;;;;;;22.27;12.18;;;-1.30;99.90;;;;;;5030427;28;20464;-73
2022/11/30 07:41:48;;;;;;;19.17;11.30;;;-1.30;99.90;;;;;;5052118;28;20159;-73
2022/11/30 07:44:18;;;;;;;22.73;11.93;;;-1.30;99.90;;;;;;5029210;28;20494;-72
2022/11/30 07:46:45;;;;;;;23.42;11.05;;;-1.20;99.90;;;;;;5025238;28;20539;-73
2022/11/30 07:49:13;;;;;;;19.30;10.65;;;-1.20;99.90;;;;;;5030543;28;20505;-72
2022/11/30 07:51:41;;;;;;;20.00;11.45;;;-1.10;99.90;;;;;;5030579;28;20041;-73
2022/11/30 07:54:09;;;;;;;20.05;12.10;;;-1.10;99.90;;;;;;5033088;28;20045;-73
2022/11/30 07:56:36;;;;;;;20.20;11.25;;;-1.10;99.90;;;;;;5030499;28;20057;-73
2022/11/30 07:59:04;;;;;;;19.55;11.60;;;-1.10;99.90;;;;;;5061704;28;20115;-74
2022/11/30 08:01:33;;;;;;;20.70;11.02;;;-1.10;99.90;;;;;;5030238;28;20056;-73
2022/11/30 08:04:01;;;;;;;20.60;11.80;;;-1.10;99.90;;;;;;5028650;28;20518;-73
2022/11/30 08:06:31;;;;;;;17.80;10.55;;;-1.10;99.90;;;;;;5031081;28;20049;-73
2022/11/30 08:09:02;;;;;;;20.58;11.95;;;-1.10;99.90;;;;;;5031418;28;20053;-73
2022/11/30 08:11:32;;;;;;;18.27;9.43;;;-1.10;99.90;;;;;;5013251;28;20050;-73
2022/11/30 08:13:59;;;;;;;17.92;10.27;;;-1.10;99.90;;;;;;5031763;28;20045;-76
2022/11/30 08:16:29;;;;;;;16.00;9.73;;;-1.10;99.90;;;;;;5029339;28;20053;-75
2022/11/30 08:18:57;;;;;;;17.08;9.70;;;-1.10;99.90;;;;;;5034967;28;20140;-75
2022/11/30 08:21:25;;;;;;;13.98;8.82;;;-1.20;99.90;;;;;;5030898;28;20048;-75
2022/11/30 08:23:55;;;;;;;16.77;10.52;;;-1.20;99.90;;;;;;5030123;28;20613;-77
2022/11/30 08:26:27;;;;;;;16.05;8.60;;;-1.20;99.90;;;;;;5030104;28;20127;-77
2022/11/30 08:28:56;;;;;;;15.10;8.83;;;-1.20;99.90;;;;;;5029700;28;20045;-77
2022/11/30 08:31:27;;;;;;;16.58;9.05;;;-1.10;99.90;;;;;;5030691;28;20784;-76
2022/11/30 08:33:57;;;;;;;16.17;10.30;;;-1.00;99.90;;;;;;5031035;28;20506;-75
2022/11/30 08:36:27;;;;;;;15.88;9.25;;;-1.00;99.90;;;;;;5029125;28;20045;-77
2022/11/30 08:38:57;;;;;;;16.73;9.13;;;-1.00;99.90;;;;;;5031500;28;20049;-76
2022/11/30 08:41:26;;;;;;;14.73;9.45;;;-1.00;99.90;;;;;;5062811;28;20156;-79
2022/11/30 08:43:54;;;;;;;16.38;9.38;;;-1.10;99.90;;;;;;5029523;28;20075;-77
2022/11/30 08:46:24;;;;;;;15.45;8.52;;;-1.10;99.90;;;;;;5030980;28;20061;-77
2022/11/30 08:48:51;;;;;;;15.88;8.90;;;-1.10;99.90;;;;;;5013870;28;20095;-77
2022/11/30 08:51:21;;;;;;;17.40;9.32;;;-1.10;99.90;;;;;;5030638;28;20067;-75
2022/11/30 08:53:49;;;;;;;16.42;8.98;;;-1.10;99.90;;;;;;5028585;28;20045;-76
2022/11/30 08:56:19;;;;;;;17.17;9.40;;;-1.00;99.90;;;;;;5057810;28;20049;-73
2022/11/30 08:58:48;;;;;;;17.73;9.20;;;-0.90;99.90;;;;;;5016960;28;20099;-73
2022/11/30 09:01:18;;;;;;;16.58;9.95;;;-0.90;99.90;;;;;;5030462;28;20646;-73
2022/11/30 09:03:47;;;;;;;17.45;9.15;;;-0.90;99.90;;;;;;5030015;28;20068;-74
2022/11/30 09:06:18;;;;;;;16.55;9.60;;;-0.80;99.90;;;;;;5028264;28;20077;-75
2022/11/30 09:08:48;;;;;;;15.20;8.90;;;-0.80;99.90;;;;;;5028516;28;20176;-76
2022/11/30 09:11:19;;;;;;;17.90;9.73;;;-0.80;99.90;;;;;;5030092;28;20049;-74
2022/11/30 09:13:49;;;;;;;17.75;9.55;;;-0.80;99.90;;;;;;5026730;28;20084;-74
2022/11/30 09:16:18;;;;;;;17.90;10.60;;;-0.70;99.90;;;;;;5028037;28;20053;-75
2022/11/30 09:18:47;;;;;;;20.33;10.63;;;-0.70;99.90;;;;;;5030360;28;20053;-75
2022/11/30 09:21:16;;;;;;;17.80;9.93;;;-0.60;99.90;;;;;;5060389;28;20084;-74
2022/11/30 09:23:44;;;;;;;17.42;10.18;;;-0.50;99.90;;;;;;5029558;28;20140;-74
2022/11/30 09:26:17;;;;;;;24.15;9.98;;;-0.50;99.90;;;;;;5028529;28;20041;-73
2022/11/30 09:28:45;;;;;;;15.95;9.00;;;-0.50;99.90;;;;;;5029405;28;20045;-73
2022/11/30 09:31:18;;;;;;;18.25;10.90;;;-0.50;99.90;;;;;;5029957;28;20052;-73
2022/11/30 09:33:46;;;;;;;;;;;-0.60;99.90;;;;;;5032337;28;20065;-73
2022/11/30 09:36:16;;;;;;;15.02;9.23;;;-0.60;99.90;;;;;;5028438;28;20455;-74
2022/11/30 09:38:43;;;;;;;21.48;12.10;;;-0.70;99.90;;;;;;5029773;28;20080;-75
2022/11/30 09:41:49;;;;;;;18.60;10.05;;;-0.70;99.90;;;;;;5046194;28;20498;-74
2022/11/30 09:44:25;;;;;;;17.48;10.52;;;-0.70;99.90;;;;;;5006919;28;20056;-74
2022/11/30 09:47:11;;;;;;;18.05;10.07;;;-0.70;99.90;;;;;;5010451;28;20045;-73
2022/11/30 09:49:42;;;;;;;20.63;10.80;;;-0.70;99.90;;;;;;5029294;28;20148;-75
2022/11/30 09:52:16;;;;;;;16.42;10.27;;;-0.70;99.90;;;;;;5029785;28;20057;-75
2022/11/30 09:54:46;;;;;;;19.90;10.85;;;-0.70;99.90;;;;;;5041949;28;20073;-73
2022/11/30 09:57:26;;;;;;;16.50;9.52;;;-0.80;99.90;;;;;;5043708;28;20144;-74
2022/11/30 09:59:57;;;;;;;23.65;11.05;;;-0.80;99.90;;;;;;5029661;28;20060;-73
2022/11/30 10:02:30;;;;;;;19.83;11.40;;;-0.80;99.90;;;;;;5059820;28;20072;-74
2022/11/30 10:04:58;;;;;;;19.02;9.98;;;-0.80;99.90;;;;;;5029466;28;20058;-74
2022/11/30 10:07:44;;;;;;;20.35;10.60;;;-0.80;99.90;;;;;;5044780;28;20510;-73
2022/11/30 10:10:26;;;;;;;18.77;10.73;;;-0.80;99.90;;;;;;5060518;28;20167;-74
2022/11/30 10:13:03;;;;;;;18.00;10.75;;;-0.80;99.90;;;;;;5019287;28;20085;-75
2022/11/30 10:15:43;;;;;;;16.67;10.35;;;-0.80;99.90;;;;;;5029657;28;20119;-74
2022/11/30 10:18:23;;;;;;;16.92;10.00;;;-0.70;99.90;;;;;;5033590;28;20077;-75
2022/11/30 10:21:04;;;;;;;19.48;10.70;;;-0.70;99.90;;;;;;5033661;28;20164;-73
2022/11/30 10:23:53;;;;;;;17.15;10.20;;;-0.70;99.90;;;;;;5032850;28;20053;-74
2022/11/30 10:26:32;;;;;;;16.25;9.90;;;-0.70;99.90;;;;;;5032225;28;20049;-73
2022/11/30 10:29:10;;;;;;;20.85;10.32;;;-0.70;99.90;;;;;;5033787;28;20115;-74
2022/11/30 10:31:40;;;;;;;18.23;10.15;;;-0.70;99.90;;;;;;5031191;28;20559;-75
2022/11/30 10:34:28;;;;;;;17.33;10.75;;;-0.70;99.90;;;;;;5031169;28;20052;-77
2022/11/30 10:38:12;;;;;;;19.15;9.85;;;-0.70;99.90;;;;;;5027700;28;20049;-74
2022/11/30 10:40:51;;;;;;;16.00;9.18;;;-0.70;99.90;;;;;;5033497;28;20091;-73
2022/11/30 10:43:28;;;;;;;21.40;10.27;;;-0.70;99.90;;;;;;5032966;28;20508;-73
2022/11/30 10:45:56;;;;;;;16.85;10.48;;;-0.80;99.90;;;;;;5032381;28;20065;-76
2022/11/30 10:48:34;;;;;;;22.13;10.25;;;-0.70;99.90;;;;;;5015669;28;20041;-75
2022/11/30 10:51:10;;;;;;;21.48;10.95;;;-0.70;99.90;;;;;;5032264;28;20049;-76
2022/11/30 10:53:38;;;;;;;20.23;10.20;;;-0.80;99.90;;;;;;5031717;28;20057;-78
2022/11/30 10:56:11;;;;;;;20.27;10.95;;;-0.80;99.90;;;;;;5033174;28;20046;-75
2022/11/30 10:58:39;;;;;;;;;;;-0.70;99.90;;;;;;5031172;28;20049;-75
2022/11/30 11:01:09;;;;;;;17.00;9.95;;;-0.70;99.90;;;;;;5032672;28;19928;-77
2022/11/30 11:03:37;;;;;;;18.60;10.00;;;-0.70;99.90;;;;;;5015397;28;20053;-76
2022/11/30 11:06:17;;;;;;;18.33;10.13;;;-0.70;99.90;;;;;;5033117;28;20697;-76
2022/11/30 11:08:45;;;;;;;19.67;10.98;;;-0.90;99.90;;;;;;5030456;28;20060;-73
2022/11/30 11:11:43;;;;;;;18.27;10.38;;;-1.00;99.90;;;;;;5031267;28;20045;-73
2022/11/30 11:14:22;;;;;;;17.83;9.70;;;-1.00;99.90;;;;;;4938585;28;20051;-73
2022/11/30 11:16:55;;;;;;;17.60;10.57;;;-1.00;99.90;;;;;;5023286;28;20051;-73
2022/11/30 11:19:30;;;;;;;20.27;10.88;;;-1.00;99.90;;;;;;5043524;28;20520;-72
2022/11/30 11:22:01;;;;;;;16.17;9.85;;;-1.00;99.90;;;;;;5037522;28;20377;-71
2022/11/30 11:24:29;;;;;;;16.58;9.73;;;-1.00;99.90;;;;;;5013037;28;20100;-73
2022/11/30 11:26:57;;;;;;;20.40;10.52;;;-1.00;99.90;;;;;;5028959;28;20048;-72
2022/11/30 11:29:32;;;;;;;18.73;9.85;;;-1.00;99.90;;;;;;5030306;28;20524;-72
2022/11/30 11:32:29;;;;;;;18.52;9.57;;;-1.00;99.90;;;;;;5029512;28;20053;-71
2022/11/30 11:34:58;;;;;;;17.45;9.82;;;-0.90;99.90;;;;;;5014969;28;20049;-73
2022/11/30 11:37:31;;;;;;;15.15;8.55;;;-0.90;99.90;;;;;;5030918;28;20057;-73
2022/11/30 11:40:05;;;;;;;;;;;-0.90;99.90;;;;;;5013393;28;20056;-73
2022/11/30 11:42:37;;;;;;;17.77;10.05;;;-1.00;99.90;;;;;;5013288;28;19948;-74
2022/11/30 11:45:16;;;;;;;17.42;9.23;;;-1.10;99.90;;;;;;5023719;28;20056;-72
2022/11/30 11:47:45;;;;;;;16.50;8.95;;;-1.10;99.90;;;;;;5012696;28;20054;-70
2022/11/30 11:50:27;;;;;;;16.30;9.00;;;-1.10;99.90;;;;;;5026204;28;20053;-72
2022/11/30 11:53:21;;;;;;;21.13;9.60;;;-1.10;99.90;;;;;;5031459;28;20115;-72
2022/11/30 11:55:55;;;;;;;16.40;9.30;;;-1.10;99.90;;;;;;5031523;28;20053;-73
2022/11/30 11:58:33;;;;;;;15.45;10.00;;;-1.10;99.90;;;;;;5032171;28;20041;-73
2022/11/30 12:01:07;;;;;;;16.17;8.77;;;-1.10;99.90;;;;;;5032140;28;20057;-75
2022/11/30 12:03:42;;;;;;;16.95;9.05;;;-1.00;99.90;;;;;;5026868;28;20053;-75
2022/11/30 12:06:14;;;;;;;19.40;10.18;;;-1.10;99.90;;;;;;5031359;28;20054;-75
2022/11/30 12:08:50;;;;;;;17.98;9.20;;;-1.10;99.90;;;;;;5015516;28;20057;-73
2022/11/30 12:11:21;;;;;;;17.52;10.05;;;-1.20;99.90;;;;;;5030474;28;20144;-74
2022/11/30 12:13:49;;;;;;;17.88;9.32;;;-1.20;99.90;;;;;;5031823;28;20053;-70
2022/11/30 12:16:37;;;;;;;18.23;9.52;;;-1.30;99.90;;;;;;5031512;28;20046;-72
2022/11/30 12:19:14;;;;;;;18.13;9.73;;;-1.20;99.90;;;;;;5032263;28;20449;-74
2022/11/30 12:21:57;;;;;;;18.02;9.18;;;-1.30;99.90;;;;;;5028425;28;20049;-73
2022/11/30 12:24:46;;;;;;;14.40;8.63;;;-1.30;99.90;;;;;;5031853;28;20299;-73
2022/11/30 12:27:24;;;;;;;16.48;8.90;;;-1.30;99.90;;;;;;5030289;28;20049;-75
2022/11/30 12:30:05;;;;;;;20.63;9.13;;;-1.30;99.90;;;;;;5030858;28;20050;-74
2022/11/30 12:33:09;;;;;;;16.63;9.55;;;-1.30;99.90;;;;;;5031782;28;20053;-73
2022/11/30 12:35:46;;;;;;;17.55;9.52;;;-1.30;99.90;;;;;;5024793;28;20548;-74
2022/11/30 12:38:31;;;;;;;16.77;9.48;;;-1.30;99.90;;;;;;5027953;28;20084;-74
2022/11/30 12:41:11;;;;;;;15.98;9.07;;;-1.20;99.90;;;;;;5030101;28;20053;-72
2022/11/30 12:43:48;;;;;;;17.35;9.00;;;-1.20;99.90;;;;;;5031560;28;20052;-73
2022/11/30 12:46:24;;;;;;;20.33;8.85;;;-1.30;99.90;;;;;;5029520;28;20053;-71
2022/11/30 12:49:12;;;;;;;19.33;10.55;;;-1.30;99.90;;;;;;5022883;28;20529;-69
2022/11/30 12:51:49;;;;;;;14.02;8.60;;;-1.40;99.90;;;;;;5022774;28;20140;-72
2022/11/30 12:54:26;;;;;;;19.35;9.32;;;-1.40;99.90;;;;;;5027444;28;20567;-71